Time;durP1;ratioP1;P1;durP2;ratioP2;P2;SDS_P1;SDS_P2;PMS_P1;PMS_P2;Temp;Humidity;BMP_temperature;BMP_pressure;BME280_temperature;BME280_humidity;BME280_pressure;Samples;Min_cycle;Max_cycle;Signal;HPM_P1;HPM_P2
2022/04/13 00:00:28;;;;;;;18.98;6.15;;;7.80;90.70;;;;;;5032610;28;20179;-71
2022/04/13 00:02:55;;;;;;;7.63;3.85;;;7.80;90.50;;;;;;5033736;28;20179;-71
2022/04/13 00:05:20;;;;;;;6.78;3.38;;;7.80;91.00;;;;;;5032850;28;20206;-71
2022/04/13 00:07:46;;;;;;;8.07;3.92;;;7.80;91.00;;;;;;5032979;28;20558;-71
2022/04/13 00:10:12;;;;;;;7.05;3.80;;;7.80;91.30;;;;;;5032905;28;20240;-71
2022/04/13 00:12:37;;;;;;;6.88;3.92;;;7.70;91.20;;;;;;5032569;28;20182;-71
2022/04/13 00:15:05;;;;;;;5.95;3.67;;;7.70;91.30;;;;;;5033643;28;20212;-70
2022/04/13 00:17:31;;;;;;;7.75;4.00;;;7.70;91.70;;;;;;5033624;28;20174;-70
2022/04/13 00:19:58;;;;;;;7.65;3.97;;;7.80;91.50;;;;;;5033609;28;20545;-70
2022/04/13 00:22:23;;;;;;;7.70;4.10;;;7.90;91.10;;;;;;5032415;28;20293;-71
2022/04/13 00:24:49;;;;;;;6.22;3.58;;;7.80;90.80;;;;;;5032926;28;20226;-71
2022/04/13 00:27:15;;;;;;;7.05;3.42;;;7.90;90.60;;;;;;5032299;28;20171;-71
2022/04/13 00:29:40;;;;;;;8.30;3.60;;;7.80;90.60;;;;;;5033650;28;20171;-71
2022/04/13 00:32:07;;;;;;;7.72;3.85;;;7.90;90.90;;;;;;5032269;28;20229;-71
2022/04/13 00:34:32;;;;;;;4.25;3.40;;;7.90;91.10;;;;;;5033301;28;20270;-71
2022/04/13 00:36:58;;;;;;;7.43;3.53;;;8.00;90.90;;;;;;5033098;28;20207;-71
2022/04/13 00:39:24;;;;;;;6.40;3.63;;;7.90;91.00;;;;;;5033297;28;20674;-71
2022/04/13 00:42:06;;;;;;;8.07;3.70;;;8.00;90.70;;;;;;5033229;28;20206;-71
2022/04/13 00:44:34;;;;;;;4.57;3.35;;;7.90;90.60;;;;;;5033654;28;20338;-71
2022/04/13 00:47:03;;;;;;;6.03;3.70;;;7.80;91.30;;;;;;5032189;28;20230;-71
2022/04/13 00:49:30;;;;;;;10.52;4.18;;;7.80;91.40;;;;;;5032222;28;20175;-71
2022/04/13 00:51:58;;;;;;;8.88;3.78;;;7.70;91.50;;;;;;5033589;28;20183;-71
2022/04/13 00:54:25;;;;;;;14.02;4.05;;;7.60;92.40;;;;;;5031991;28;20189;-70
2022/04/13 00:56:53;;;;;;;9.60;3.80;;;7.40;93.60;;;;;;5032037;28;20198;-70
2022/04/13 00:59:20;;;;;;;11.18;4.25;;;7.40;94.30;;;;;;5032375;28;20179;-69
2022/04/13 01:01:48;;;;;;;10.07;4.35;;;7.50;94.80;;;;;;5033150;28;20280;-69
2022/04/13 01:04:14;;;;;;;8.05;4.10;;;7.50;94.50;;;;;;5036671;28;20183;-69
2022/04/13 01:06:41;;;;;;;7.32;3.40;;;7.50;93.90;;;;;;5036804;28;20198;-70
2022/04/13 01:09:08;;;;;;;6.20;4.10;;;7.50;93.70;;;;;;5036042;28;20175;-70
2022/04/13 01:11:33;;;;;;;6.00;3.78;;;7.40;94.00;;;;;;5036355;28;20182;-70
2022/04/13 01:13:59;;;;;;;9.40;4.45;;;7.40;94.10;;;;;;5035801;28;20179;-69
2022/04/13 01:16:26;;;;;;;10.35;4.70;;;7.40;94.00;;;;;;5036115;28;20199;-70
2022/04/13 01:18:55;;;;;;;11.52;4.40;;;7.30;94.60;;;;;;5035990;28;20630;-69
2022/04/13 01:22:03;;;;;;;7.82;4.80;;;7.30;95.00;;;;;;5036544;28;20249;-69
2022/04/13 01:24:29;;;;;;;6.15;4.53;;;7.10;96.20;;;;;;4995607;28;20180;-70
2022/04/13 01:26:55;;;;;;;9.18;5.13;;;6.90;97.20;;;;;;5026729;28;20187;-69
2022/04/13 01:29:21;;;;;;;7.90;4.40;;;6.90;98.30;;;;;;5035821;28;20229;-71
2022/04/13 01:31:47;;;;;;;5.43;3.97;;;6.90;98.00;;;;;;5037042;28;20179;-71
2022/04/13 01:34:13;;;;;;;6.03;4.30;;;6.90;98.80;;;;;;5035779;28;20218;-71
2022/04/13 01:36:39;;;;;;;4.87;3.73;;;6.80;98.60;;;;;;5035664;28;20253;-70
2022/04/13 01:39:06;;;;;;;6.57;3.80;;;6.80;99.20;;;;;;5035399;28;20182;-70
2022/04/13 01:41:32;;;;;;;5.95;3.97;;;6.90;98.90;;;;;;5035965;28;20210;-71
2022/04/13 01:43:58;;;;;;;8.68;3.75;;;6.90;99.20;;;;;;5036150;28;20191;-71
2022/04/13 01:46:24;;;;;;;7.20;4.10;;;7.00;98.50;;;;;;5035233;28;20206;-71
2022/04/13 01:48:50;;;;;;;8.90;4.25;;;7.00;97.60;;;;;;5036692;28;20179;-72
2022/04/13 01:51:17;;;;;;;5.13;3.30;;;7.10;97.50;;;;;;5035616;28;20182;-72
2022/04/13 01:53:43;;;;;;;6.13;3.70;;;7.00;97.00;;;;;;5036319;28;20318;-71
2022/04/13 01:56:08;;;;;;;5.18;3.75;;;7.00;97.00;;;;;;5034918;28;20205;-71
2022/04/13 01:58:34;;;;;;;4.68;3.88;;;6.90;97.50;;;;;;5035257;28;20179;-70
2022/04/13 02:01:00;;;;;;;5.20;3.45;;;7.00;97.30;;;;;;5035676;28;20206;-69
2022/04/13 02:03:26;;;;;;;4.47;3.38;;;7.00;97.50;;;;;;5035206;28;20180;-69
2022/04/13 02:05:53;;;;;;;7.18;4.00;;;7.00;97.40;;;;;;5034952;28;20675;-71
2022/04/13 02:08:22;;;;;;;4.45;3.55;;;7.00;97.20;;;;;;5035401;28;20182;-72
2022/04/13 02:10:49;;;;;;;5.03;3.70;;;7.10;97.40;;;;;;5035991;28;20185;-72
2022/04/13 02:13:14;;;;;;;3.90;3.40;;;7.20;96.30;;;;;;5034952;28;20218;-72
2022/04/13 02:15:41;;;;;;;5.78;3.50;;;7.20;96.70;;;;;;5034873;28;20194;-72
2022/04/13 02:18:06;;;;;;;7.40;3.75;;;7.00;96.60;;;;;;5034705;28;20257;-71
2022/04/13 02:20:32;;;;;;;5.10;3.80;;;6.80;97.60;;;;;;5035090;28;20174;-70
2022/04/13 02:22:58;;;;;;;10.48;4.10;;;6.80;98.60;;;;;;5036584;28;20171;-71
2022/04/13 02:25:24;;;;;;;5.72;3.55;;;6.70;98.90;;;;;;5035070;28;20249;-71
2022/04/13 02:27:49;;;;;;;6.93;4.03;;;6.70;99.60;;;;;;5034675;28;20179;-71
2022/04/13 02:30:15;;;;;;;8.57;4.30;;;6.60;99.90;;;;;;5034454;28;20225;-71
2022/04/13 02:32:45;;;;;;;5.77;4.50;;;6.50;99.90;;;;;;5034465;28;20324;-71
2022/04/13 02:35:12;;;;;;;7.40;3.90;;;6.40;99.90;;;;;;5035141;28;20203;-71
2022/04/13 02:37:38;;;;;;;6.25;4.03;;;6.40;99.90;;;;;;5034324;28;20524;-70
2022/04/13 02:40:06;;;;;;;6.80;4.00;;;6.40;99.90;;;;;;5035347;28;20232;-69
2022/04/13 02:42:35;;;;;;;8.80;3.83;;;6.40;99.90;;;;;;5034124;28;20420;-69
2022/04/13 02:45:03;;;;;;;4.78;3.53;;;6.50;99.90;;;;;;5034984;28;20199;-70
2022/04/13 02:47:29;;;;;;;4.82;3.60;;;6.50;99.90;;;;;;5034576;28;20178;-71
2022/04/13 02:49:55;;;;;;;4.28;3.53;;;6.60;99.90;;;;;;5035167;28;20171;-72
2022/04/13 02:52:21;;;;;;;6.13;3.60;;;6.70;99.90;;;;;;5035984;28;20182;-72
2022/04/13 02:54:46;;;;;;;5.35;3.70;;;6.80;99.90;;;;;;5034897;28;20207;-71
2022/04/13 02:57:12;;;;;;;5.40;3.53;;;6.90;99.90;;;;;;5034597;28;20218;-71
2022/04/13 02:59:37;;;;;;;4.65;3.63;;;6.90;99.90;;;;;;5034276;28;20237;-69
2022/04/13 03:02:04;;;;;;;4.88;3.50;;;7.00;99.90;;;;;;5033775;28;20217;-69
2022/04/13 03:04:32;;;;;;;3.58;3.28;;;7.00;99.90;;;;;;5034055;28;20178;-70
2022/04/13 03:06:58;;;;;;;4.72;3.60;;;7.00;99.90;;;;;;5035220;28;20172;-69
2022/04/13 03:09:24;;;;;;;6.00;3.30;;;7.00;99.90;;;;;;5035144;28;20171;-69
2022/04/13 03:11:49;;;;;;;10.02;4.18;;;6.80;99.90;;;;;;5033978;28;20190;-69
2022/04/13 03:14:15;;;;;;;8.23;3.80;;;6.70;99.90;;;;;;5033891;28;20302;-71
2022/04/13 03:16:41;;;;;;;7.25;4.25;;;6.70;99.90;;;;;;5034123;28;20621;-71
2022/04/13 03:19:06;;;;;;;18.73;16.25;;;6.70;99.90;;;;;;5035455;28;20197;-71
2022/04/13 03:21:32;;;;;;;9.43;8.48;;;6.80;99.90;;;;;;5034990;28;20202;-71
2022/04/13 03:23:57;;;;;;;7.68;4.60;;;6.80;99.90;;;;;;5034752;28;20203;-69
2022/04/13 03:26:23;;;;;;;8.77;5.53;;;6.80;99.90;;;;;;5032449;28;20203;-69
2022/04/13 03:28:49;;;;;;;9.88;5.07;;;6.70;99.90;;;;;;5033316;28;20175;-69
2022/04/13 03:31:16;;;;;;;6.03;4.25;;;6.70;99.90;;;;;;5033258;28;20190;-69
2022/04/13 03:33:42;;;;;;;7.53;4.22;;;6.70;99.90;;;;;;5034450;28;20175;-70
2022/04/13 03:36:08;;;;;;;6.47;4.43;;;6.60;99.90;;;;;;5033964;28;20296;-69
2022/04/13 03:38:34;;;;;;;8.60;4.40;;;6.50;99.90;;;;;;5033140;28;20236;-69
2022/04/13 03:41:02;;;;;;;7.97;3.97;;;6.40;99.90;;;;;;5033315;28;20203;-69
2022/04/13 03:43:28;;;;;;;7.55;4.30;;;6.40;99.90;;;;;;5033125;28;20231;-69
2022/04/13 03:45:54;;;;;;;5.30;3.90;;;6.20;99.90;;;;;;5033560;28;20218;-69
2022/04/13 03:48:20;;;;;;;4.63;4.00;;;6.30;99.90;;;;;;5032923;28;20179;-69
2022/04/13 03:50:46;;;;;;;5.53;3.97;;;6.20;99.90;;;;;;5032954;28;20555;-69
2022/04/13 03:53:12;;;;;;;6.10;3.87;;;6.20;99.90;;;;;;5032760;28;20701;-69
2022/04/13 03:55:37;;;;;;;5.73;4.00;;;6.20;99.90;;;;;;5034247;28;20340;-69
2022/04/13 03:58:03;;;;;;;5.53;4.03;;;6.20;99.90;;;;;;5032995;28;20187;-69
2022/04/13 04:00:28;;;;;;;7.47;3.70;;;6.30;99.90;;;;;;5032611;28;20183;-71
2022/04/13 04:02:54;;;;;;;5.83;3.83;;;6.40;99.90;;;;;;5034236;28;20183;-71
2022/04/13 04:05:20;;;;;;;8.07;4.20;;;6.50;99.90;;;;;;5033807;28;20191;-71
2022/04/13 04:07:46;;;;;;;5.95;4.20;;;6.50;99.90;;;;;;5032630;28;20692;-69
2022/04/13 04:10:11;;;;;;;8.67;5.97;;;6.50;99.90;;;;;;5032595;28;20175;-69
2022/04/13 04:12:39;;;;;;;8.40;5.00;;;6.40;99.90;;;;;;5033644;28;20189;-69
2022/04/13 04:15:05;;;;;;;11.30;4.03;;;6.40;99.90;;;;;;5033949;28;20297;-70
2022/04/13 04:17:31;;;;;;;9.15;4.75;;;6.50;99.90;;;;;;5033692;28;20171;-69
2022/04/13 04:19:56;;;;;;;14.50;4.22;;;6.50;99.90;;;;;;5032650;28;20233;-69
2022/04/13 04:22:24;;;;;;;7.70;4.13;;;6.50;99.90;;;;;;5032502;28;20199;-69
2022/04/13 04:24:50;;;;;;;9.47;3.83;;;6.40;99.90;;;;;;5032340;28;20285;-69
2022/04/13 04:27:15;;;;;;;8.33;4.03;;;6.30;99.90;;;;;;5032737;28;20233;-69
2022/04/13 04:29:41;;;;;;;8.43;3.83;;;6.10;99.90;;;;;;5032340;28;20198;-69
2022/04/13 04:32:07;;;;;;;8.23;3.90;;;6.20;99.90;;;;;;5033498;28;20658;-69
2022/04/13 04:34:33;;;;;;;15.67;4.10;;;6.10;99.90;;;;;;5032450;28;20214;-69
2022/04/13 04:36:59;;;;;;;11.13;3.87;;;6.10;99.90;;;;;;5032160;28;20179;-69
2022/04/13 04:39:25;;;;;;;7.27;3.90;;;6.20;99.90;;;;;;5032319;28;20185;-69
2022/04/13 04:41:52;;;;;;;7.33;4.30;;;6.10;99.90;;;;;;5032347;28;20302;-69
2022/04/13 04:44:17;;;;;;;9.23;3.93;;;6.10;99.90;;;;;;5032098;28;20190;-69
2022/04/13 04:46:43;;;;;;;6.23;4.00;;;6.00;99.90;;;;;;5033382;28;20206;-70
2022/04/13 04:49:08;;;;;;;7.17;3.93;;;5.90;99.90;;;;;;5033843;28;20179;-71
2022/04/13 04:51:34;;;;;;;9.73;4.10;;;5.90;99.90;;;;;;5033533;28;20205;-70
2022/04/13 04:54:55;;;;;;;7.80;4.00;;;5.90;99.90;;;;;;5032613;28;20178;-70
2022/04/13 04:57:21;;;;;;;7.50;4.30;;;6.00;99.90;;;;;;5032596;28;20301;-70
2022/04/13 04:59:46;;;;;;;14.37;4.00;;;6.20;99.90;;;;;;5032225;28;20266;-71
2022/04/13 05:02:12;;;;;;;16.60;4.50;;;6.20;99.90;;;;;;5032588;28;20676;-71
2022/04/13 05:04:37;;;;;;;8.73;4.30;;;6.20;99.90;;;;;;5033093;28;20257;-70
2022/04/13 05:07:03;;;;;;;6.43;4.50;;;6.30;99.90;;;;;;5032327;28;20190;-72
2022/04/13 05:09:29;;;;;;;11.00;4.40;;;6.30;99.90;;;;;;5033226;28;20179;-72
2022/04/13 05:11:55;;;;;;;10.83;4.63;;;6.30;99.90;;;;;;5032975;28;20179;-71
2022/04/13 05:14:20;;;;;;;13.53;4.30;;;6.40;99.90;;;;;;5031926;28;20672;-71
2022/04/13 05:16:46;;;;;;;14.10;4.87;;;6.50;99.90;;;;;;5033104;28;20187;-70
2022/04/13 05:19:12;;;;;;;14.93;5.70;;;6.50;99.90;;;;;;5033385;28;20175;-70
2022/04/13 05:21:37;;;;;;;10.77;5.60;;;6.30;99.90;;;;;;5031790;28;20199;-71
2022/04/13 05:24:03;;;;;;;7.97;5.73;;;6.20;99.90;;;;;;5031829;28;20216;-71
2022/04/13 05:26:29;;;;;;;15.73;9.20;;;6.10;99.90;;;;;;5033312;28;20632;-71
2022/04/13 05:28:54;;;;;;;28.03;11.83;;;6.20;99.90;;;;;;5031682;28;20179;-70
2022/04/13 05:31:20;;;;;;;18.73;8.40;;;6.30;99.90;;;;;;5032274;28;20261;-70
2022/04/13 05:33:46;;;;;;;13.57;6.47;;;6.30;99.90;;;;;;5032825;28;20626;-71
2022/04/13 05:36:12;;;;;;;9.53;6.53;;;6.40;99.90;;;;;;5031736;28;20194;-71
2022/04/13 05:38:40;;;;;;;12.97;6.90;;;6.40;99.90;;;;;;5031727;28;20183;-71
2022/04/13 05:41:05;;;;;;;14.93;6.53;;;6.40;99.90;;;;;;5031580;28;20573;-71
2022/04/13 05:43:33;;;;;;;11.77;6.43;;;6.50;99.90;;;;;;5031568;28;20203;-71
2022/04/13 05:45:59;;;;;;;8.50;5.70;;;6.60;99.90;;;;;;5032749;28;20276;-71
2022/04/13 05:48:24;;;;;;;10.03;5.83;;;6.70;99.90;;;;;;5032588;28;20207;-70
2022/04/13 05:50:50;;;;;;;13.63;4.83;;;6.70;99.90;;;;;;5035576;28;20191;-70
2022/04/13 05:53:16;;;;;;;16.83;5.37;;;6.90;99.90;;;;;;5035173;28;20186;-69
2022/04/13 05:55:42;;;;;;;16.07;6.30;;;6.90;99.90;;;;;;5035456;28;20203;-71
2022/04/13 05:58:07;;;;;;;16.90;6.78;;;7.00;99.90;;;;;;5035628;28;20191;-71
2022/04/13 06:00:33;;;;;;;11.05;6.30;;;7.10;99.90;;;;;;5036351;28;20187;-71
2022/04/13 06:03:07;;;;;;;16.42;7.15;;;7.30;99.90;;;;;;5036522;28;20217;-71
2022/04/13 06:05:32;;;;;;;16.25;12.15;;;7.40;99.90;;;;;;5034815;28;20206;-70
2022/04/13 06:07:58;;;;;;;19.75;7.43;;;7.50;99.90;;;;;;5034859;28;20179;-70
2022/04/13 06:10:23;;;;;;;15.45;8.07;;;7.70;99.90;;;;;;5035285;28;20175;-71
2022/04/13 06:12:49;;;;;;;16.25;7.05;;;7.80;99.90;;;;;;5034781;28;20183;-71
2022/04/13 06:15:15;;;;;;;18.33;6.38;;;7.90;99.90;;;;;;5034511;28;20218;-70
2022/04/13 06:17:40;;;;;;;12.07;6.03;;;8.10;99.90;;;;;;5033740;28;20218;-70
2022/04/13 06:20:08;;;;;;;18.95;6.80;;;8.10;99.90;;;;;;5035272;28;20328;-70
2022/04/13 06:22:39;;;;;;;14.75;6.28;;;8.30;99.90;;;;;;5035452;28;20203;-71
2022/04/13 06:25:05;;;;;;;14.75;5.43;;;8.40;99.90;;;;;;5034950;28;20195;-71
2022/04/13 06:27:31;;;;;;;24.92;6.43;;;8.60;99.90;;;;;;5035313;28;20175;-71
2022/04/13 06:29:57;;;;;;;13.93;8.05;;;8.80;98.70;;;;;;5035022;28;20171;-71
2022/04/13 06:32:31;;;;;;;15.02;6.60;;;9.10;97.40;;;;;;5036711;28;20179;-71
2022/04/13 06:34:59;;;;;;;9.48;6.88;;;9.20;96.70;;;;;;5034696;28;20202;-71
2022/04/13 06:37:24;;;;;;;20.95;12.07;;;9.30;96.30;;;;;;5036116;28;20210;-71
2022/04/13 06:39:50;;;;;;;30.00;21.67;;;9.50;96.60;;;;;;5036384;28;20171;-71
2022/04/13 06:42:15;;;;;;;35.00;22.00;;;9.60;96.40;;;;;;5035239;28;20233;-71
2022/04/13 06:44:41;;;;;;;29.60;20.45;;;9.80;95.00;;;;;;5034091;28;20178;-71
2022/04/13 06:47:06;;;;;;;36.75;25.17;;;10.00;94.60;;;;;;5034550;28;20175;-70
2022/04/13 06:49:32;;;;;;;28.58;19.63;;;10.20;93.30;;;;;;5034924;28;20217;-70
2022/04/13 06:51:57;;;;;;;25.25;18.40;;;10.40;93.00;;;;;;5034375;28;20178;-70
2022/04/13 06:54:24;;;;;;;22.02;16.30;;;10.50;93.10;;;;;;5036183;28;20183;-71
2022/04/13 06:56:49;;;;;;;21.23;17.05;;;10.50;94.60;;;;;;5035934;28;20191;-70
2022/04/13 06:59:15;;;;;;;12.50;6.57;;;10.60;95.10;;;;;;5033927;28;20178;-70
2022/04/13 07:01:41;;;;;;;10.70;5.63;;;10.80;93.60;;;;;;5033844;28;20293;-70
2022/04/13 07:04:06;;;;;;;10.32;6.45;;;11.10;92.20;;;;;;5033897;28;20228;-70
2022/04/13 07:06:32;;;;;;;11.75;8.93;;;11.30;90.20;;;;;;5033689;28;20191;-70
2022/04/13 07:08:57;;;;;;;25.17;8.48;;;11.60;91.60;;;;;;5033760;28;20638;-71
2022/04/13 07:11:23;;;;;;;14.05;6.80;;;11.80;92.60;;;;;;5033816;28;20218;-71
2022/04/13 07:13:48;;;;;;;14.57;6.45;;;11.90;93.80;;;;;;5034042;28;20182;-72
2022/04/13 07:16:14;;;;;;;12.90;6.00;;;12.10;94.40;;;;;;5035289;28;20198;-72
2022/04/13 07:18:40;;;;;;;9.23;5.55;;;12.20;93.00;;;;;;5035130;28;20187;-72
2022/04/13 07:21:05;;;;;;;12.57;5.20;;;12.30;92.00;;;;;;5033653;28;20199;-71
2022/04/13 07:23:31;;;;;;;10.15;5.13;;;12.50;90.00;;;;;;5033610;28;20174;-72
2022/04/13 07:25:56;;;;;;;8.93;4.80;;;12.70;85.80;;;;;;5033433;28;20202;-71
2022/04/13 07:28:22;;;;;;;6.47;4.97;;;12.80;79.70;;;;;;5033419;28;20277;-71
2022/04/13 07:30:47;;;;;;;8.88;4.80;;;13.00;78.60;;;;;;5034041;28;20164;-71
2022/04/13 07:33:13;;;;;;;7.57;4.75;;;13.10;76.80;;;;;;5033734;28;20195;-71
2022/04/13 07:35:38;;;;;;;8.70;4.80;;;13.10;74.40;;;;;;5034023;28;20300;-71
2022/04/13 07:38:04;;;;;;;9.02;4.63;;;13.30;71.10;;;;;;5033340;28;20183;-70
2022/04/13 07:40:30;;;;;;;6.40;4.70;;;13.40;71.20;;;;;;5033265;28;20183;-69
2022/04/13 07:42:56;;;;;;;7.18;4.57;;;13.60;71.60;;;;;;5033437;28;20242;-72
2022/04/13 07:45:21;;;;;;;7.32;4.47;;;13.70;71.80;;;;;;5033368;28;20245;-72
2022/04/13 07:47:47;;;;;;;5.25;4.60;;;13.80;72.70;;;;;;5033679;28;20171;-72
2022/04/13 07:50:13;;;;;;;7.20;4.78;;;13.90;71.30;;;;;;5034116;28;20202;-72
2022/04/13 07:52:40;;;;;;;6.35;4.43;;;13.90;69.60;;;;;;5034696;28;20597;-71
2022/04/13 07:55:09;;;;;;;8.07;4.93;;;13.90;69.60;;;;;;5034235;28;20194;-71
2022/04/13 07:57:36;;;;;;;6.65;4.90;;;14.00;69.20;;;;;;5037827;28;20221;-72
2022/04/13 08:00:03;;;;;;;8.02;4.90;;;14.10;68.40;;;;;;5034033;28;20573;-72
2022/04/13 08:02:29;;;;;;;6.75;5.20;;;14.20;68.20;;;;;;5041561;28;20253;-71
2022/04/13 08:04:58;;;;;;;7.65;4.50;;;14.30;66.90;;;;;;5036172;28;20191;-72
2022/04/13 08:07:25;;;;;;;8.02;4.88;;;14.50;66.40;;;;;;5046479;28;20183;-72
2022/04/13 08:09:52;;;;;;;8.75;5.13;;;14.60;65.00;;;;;;5046568;28;20179;-72
2022/04/13 08:12:18;;;;;;;9.07;6.68;;;14.70;65.80;;;;;;5045888;28;20266;-72
2022/04/13 08:14:49;;;;;;;7.10;5.20;;;14.80;64.30;;;;;;5046628;28;20179;-72
2022/04/13 08:17:16;;;;;;;9.18;5.20;;;14.90;64.40;;;;;;5047435;28;20167;-72
2022/04/13 08:19:43;;;;;;;6.28;4.70;;;15.00;63.30;;;;;;5046631;28;20190;-72
2022/04/13 08:22:09;;;;;;;10.13;4.93;;;15.10;62.60;;;;;;5045983;28;20213;-72
2022/04/13 08:24:35;;;;;;;7.43;4.80;;;15.20;62.10;;;;;;5046474;28;20175;-72
2022/04/13 08:27:00;;;;;;;5.90;4.80;;;15.30;62.70;;;;;;5046228;28;20171;-72
2022/04/13 08:29:27;;;;;;;5.40;4.90;;;15.30;61.90;;;;;;5046485;28;20228;-72
2022/04/13 08:31:53;;;;;;;5.13;4.63;;;15.30;62.10;;;;;;5044742;28;20232;-70
2022/04/13 08:34:19;;;;;;;5.45;4.65;;;15.40;61.70;;;;;;5039094;28;20186;-71
2022/04/13 08:36:45;;;;;;;7.55;4.88;;;15.40;61.60;;;;;;5042141;28;20207;-70
2022/04/13 08:39:14;;;;;;;6.25;5.32;;;15.50;61.30;;;;;;5033579;28;20216;-71
2022/04/13 08:41:52;;;;;;;5.75;5.03;;;15.70;60.70;;;;;;5032440;28;20206;-71
2022/04/13 08:44:28;;;;;;;9.90;5.05;;;15.70;60.20;;;;;;5033078;28;20218;-73
2022/04/13 08:47:00;;;;;;;9.43;5.22;;;15.70;60.70;;;;;;5033672;28;20162;-72
2022/04/13 08:49:25;;;;;;;8.95;5.57;;;15.80;61.60;;;;;;5032903;28;20163;-71
2022/04/13 08:51:53;;;;;;;9.38;5.65;;;15.90;60.00;;;;;;5032133;28;20183;-71
2022/04/13 08:54:29;;;;;;;8.80;5.53;;;16.10;58.60;;;;;;5032017;28;20217;-71
2022/04/13 08:56:56;;;;;;;13.00;10.38;;;16.40;58.70;;;;;;5032176;28;20167;-70
2022/04/13 08:59:31;;;;;;;11.00;6.80;;;16.40;57.20;;;;;;5033050;28;20190;-74
2022/04/13 09:02:32;;;;;;;10.48;5.82;;;16.40;56.30;;;;;;5032199;28;20198;-73
2022/04/13 09:05:00;;;;;;;9.80;6.28;;;16.50;55.70;;;;;;5033315;28;20186;-72
2022/04/13 09:07:31;;;;;;;11.75;6.45;;;16.40;55.50;;;;;;5033638;28;20175;-72
2022/04/13 09:10:01;;;;;;;6.47;5.45;;;16.70;55.50;;;;;;5031938;28;20221;-70
2022/04/13 09:12:30;;;;;;;6.32;5.38;;;17.00;54.80;;;;;;5032147;28;20183;-71
2022/04/13 09:14:57;;;;;;;12.77;5.70;;;17.10;55.30;;;;;;5031907;28;20208;-70
2022/04/13 09:17:27;;;;;;;7.00;6.15;;;17.20;55.00;;;;;;5031977;28;20179;-72
2022/04/13 09:19:54;;;;;;;9.63;5.78;;;17.30;53.80;;;;;;5031854;28;20175;-72
2022/04/13 09:22:21;;;;;;;10.02;5.40;;;17.50;54.00;;;;;;5033066;28;20195;-71
2022/04/13 09:24:48;;;;;;;10.75;5.82;;;17.70;53.70;;;;;;5034761;28;20194;-71
2022/04/13 09:27:14;;;;;;;13.70;6.15;;;17.70;53.10;;;;;;5035721;28;20167;-71
2022/04/13 09:29:40;;;;;;;10.15;5.85;;;17.80;53.00;;;;;;5035825;28;20265;-71
2022/04/13 09:32:07;;;;;;;9.25;6.25;;;17.80;52.70;;;;;;5036124;28;20266;-70
2022/04/13 09:34:32;;;;;;;8.88;7.10;;;17.80;51.80;;;;;;5036067;28;20210;-70
2022/04/13 09:37:00;;;;;;;7.75;6.93;;;18.10;52.60;;;;;;5035835;28;20222;-72
2022/04/13 09:39:26;;;;;;;7.45;6.38;;;18.20;50.90;;;;;;5036746;28;20615;-73
2022/04/13 09:41:51;;;;;;;7.78;5.90;;;17.90;50.50;;;;;;5035626;28;20198;-70
2022/04/13 09:44:20;;;;;;;6.45;5.80;;;18.00;52.40;;;;;;5035690;28;20186;-70
2022/04/13 09:46:46;;;;;;;7.18;6.00;;;18.30;52.20;;;;;;5036451;28;20195;-70
2022/04/13 09:49:14;;;;;;;7.43;6.10;;;18.30;51.50;;;;;;5035332;28;20182;-70
2022/04/13 09:51:42;;;;;;;9.90;6.57;;;18.40;50.70;;;;;;5036968;28;20236;-71
2022/04/13 09:54:09;;;;;;;10.00;6.25;;;18.40;50.10;;;;;;5035433;28;20277;-71
2022/04/13 09:56:43;;;;;;;11.52;6.20;;;18.60;52.00;;;;;;5036384;28;20202;-70
2022/04/13 09:59:10;;;;;;;10.82;6.13;;;18.70;51.40;;;;;;5035447;28;20630;-70
2022/04/13 10:01:36;;;;;;;8.20;6.20;;;18.90;51.40;;;;;;5035267;28;20222;-70
2022/04/13 10:04:07;;;;;;;9.45;6.90;;;18.80;51.20;;;;;;5035889;28;20487;-70
2022/04/13 10:06:35;;;;;;;10.15;6.53;;;18.60;48.90;;;;;;5034866;28;20199;-70
2022/04/13 10:09:08;;;;;;;7.35;5.82;;;18.70;49.00;;;;;;5034901;28;20175;-70
2022/04/13 10:11:34;;;;;;;11.95;6.55;;;18.80;49.20;;;;;;5035320;28;20175;-70
2022/04/13 10:14:02;;;;;;;10.65;7.75;;;18.90;48.90;;;;;;5035092;28;20273;-70
2022/04/13 10:16:35;;;;;;;8.65;6.28;;;18.90;48.50;;;;;;5034672;28;20234;-70
2022/04/13 10:19:01;;;;;;;9.48;6.63;;;18.80;48.60;;;;;;5035615;28;20167;-70
2022/04/13 10:21:41;;;;;;;9.45;6.32;;;18.40;48.80;;;;;;5034668;28;20225;-71
2022/04/13 10:24:25;;;;;;;7.70;6.18;;;18.30;49.60;;;;;;5036255;28;20151;-71
2022/04/13 10:27:10;;;;;;;9.80;5.60;;;18.50;51.40;;;;;;5034607;28;20693;-71
2022/04/13 10:29:38;;;;;;;7.32;5.82;;;18.80;50.60;;;;;;5034753;28;20163;-72
2022/04/13 10:32:15;;;;;;;9.23;5.93;;;18.90;49.90;;;;;;5036687;28;20171;-72
2022/04/13 10:34:42;;;;;;;7.30;5.95;;;19.00;49.80;;;;;;5034423;28;20167;-71
2022/04/13 10:37:10;;;;;;;8.63;5.65;;;19.10;49.40;;;;;;5035124;28;20229;-71
2022/04/13 10:39:37;;;;;;;9.23;6.15;;;19.20;50.00;;;;;;5035225;28;20233;-72
2022/04/13 10:42:04;;;;;;;8.50;6.50;;;19.20;48.00;;;;;;5034287;28;20215;-70
2022/04/13 10:44:54;;;;;;;11.05;6.53;;;19.10;48.10;;;;;;5034889;28;20185;-72
2022/04/13 10:47:38;;;;;;;8.90;6.40;;;19.00;48.60;;;;;;5035960;28;20185;-72
2022/04/13 10:50:06;;;;;;;11.88;6.05;;;19.20;48.60;;;;;;5035784;28;20155;-71
2022/04/13 10:52:58;;;;;;;9.05;6.15;;;19.20;48.90;;;;;;5033968;28;20181;-71
2022/04/13 10:55:27;;;;;;;7.65;6.22;;;19.40;49.80;;;;;;5035117;28;20230;-72
2022/04/13 10:58:14;;;;;;;12.70;5.80;;;19.60;48.80;;;;;;5034852;28;20190;-70
2022/04/13 11:00:45;;;;;;;9.15;6.20;;;19.80;49.20;;;;;;5035404;28;20261;-70
2022/04/13 11:03:11;;;;;;;15.48;5.85;;;19.80;47.30;;;;;;5033915;28;20182;-71
2022/04/13 11:05:40;;;;;;;7.57;6.22;;;19.90;48.20;;;;;;5034898;28;20195;-71
2022/04/13 11:08:08;;;;;;;7.93;5.22;;;20.00;48.00;;;;;;5034143;28;20266;-71
2022/04/13 11:10:35;;;;;;;9.35;6.50;;;20.10;46.80;;;;;;5033724;28;20202;-71
2022/04/13 11:13:01;;;;;;;7.13;6.05;;;20.20;47.00;;;;;;5034889;28;20186;-71
2022/04/13 11:15:45;;;;;;;7.72;5.85;;;20.10;46.40;;;;;;5033940;28;20195;-71
2022/04/13 11:18:18;;;;;;;8.82;6.13;;;20.10;46.90;;;;;;5033893;28;20277;-71
2022/04/13 11:21:02;;;;;;;7.97;5.77;;;19.90;47.20;;;;;;5034209;28;20182;-71
2022/04/13 11:23:52;;;;;;;12.50;5.95;;;20.00;49.30;;;;;;5033902;28;20782;-72
2022/04/13 11:26:47;;;;;;;11.48;5.78;;;20.20;47.40;;;;;;5035034;28;20194;-70
2022/04/13 11:29:17;;;;;;;10.93;5.25;;;20.30;47.50;;;;;;5033971;28;20179;-72
2022/04/13 11:32:01;;;;;;;7.13;5.20;;;20.30;47.40;;;;;;5035150;28;20171;-71
2022/04/13 11:34:31;;;;;;;7.97;5.57;;;20.40;47.40;;;;;;5034662;28;20178;-72
2022/04/13 11:37:01;;;;;;;11.52;5.90;;;20.50;46.40;;;;;;5033898;28;20186;-73
2022/04/13 11:39:56;;;;;;;9.57;5.82;;;20.50;47.50;;;;;;5034136;28;20171;-72
2022/04/13 11:42:34;;;;;;;7.88;6.60;;;20.60;47.80;;;;;;5034443;28;20219;-74
2022/04/13 11:45:00;;;;;;;15.07;6.30;;;20.60;47.90;;;;;;5034883;28;20229;-72
2022/04/13 11:47:41;;;;;;;9.30;6.28;;;20.80;47.40;;;;;;5032664;28;20645;-72
2022/04/13 11:50:12;;;;;;;7.85;6.75;;;20.70;48.00;;;;;;5034556;28;20191;-72
2022/04/13 11:52:40;;;;;;;7.28;6.20;;;20.70;48.30;;;;;;5032774;28;20179;-70
2022/04/13 11:55:15;;;;;;;8.63;5.80;;;20.80;48.00;;;;;;5034350;28;20240;-72
2022/04/13 11:58:08;;;;;;;7.88;6.95;;;20.70;48.80;;;;;;5033073;28;20625;-72
2022/04/13 12:00:52;;;;;;;9.25;7.15;;;20.60;46.90;;;;;;5034300;28;20190;-71
2022/04/13 12:03:30;;;;;;;9.65;6.55;;;20.30;47.60;;;;;;5034296;28;20159;-71
2022/04/13 12:06:00;;;;;;;11.02;6.38;;;20.20;47.70;;;;;;5033945;28;20270;-71
2022/04/13 12:08:29;;;;;;;8.98;6.57;;;20.30;48.50;;;;;;5033893;28;20171;-71
2022/04/13 12:11:05;;;;;;;7.63;6.50;;;20.40;48.10;;;;;;5032947;28;20641;-70
2022/04/13 12:13:44;;;;;;;10.90;7.25;;;20.40;48.10;;;;;;5033756;28;20179;-72
2022/04/13 12:16:34;;;;;;;10.63;6.35;;;20.30;47.50;;;;;;5033854;28;20199;-70
2022/04/13 12:19:02;;;;;;;8.45;6.57;;;20.20;48.80;;;;;;5032755;28;20234;-71
2022/04/13 12:21:32;;;;;;;10.85;7.13;;;20.30;48.60;;;;;;5034081;28;20195;-74
2022/04/13 12:24:01;;;;;;;10.98;7.22;;;20.30;48.30;;;;;;5033692;28;20175;-72
2022/04/13 12:26:31;;;;;;;13.88;7.03;;;20.30;47.90;;;;;;5034209;28;20571;-73
2022/04/13 12:28:57;;;;;;;11.82;6.18;;;20.40;48.10;;;;;;5034108;28;20194;-73
2022/04/13 12:31:27;;;;;;;9.10;6.38;;;20.70;48.80;;;;;;5032918;28;20573;-73
2022/04/13 12:33:52;;;;;;;10.85;6.05;;;20.90;47.70;;;;;;5033691;28;20580;-73
2022/04/13 12:36:18;;;;;;;7.55;6.10;;;21.00;47.50;;;;;;5032554;28;20234;-72
2022/04/13 12:38:46;;;;;;;11.35;6.28;;;21.10;46.40;;;;;;5032321;28;20290;-71
2022/04/13 12:41:19;;;;;;;8.57;5.97;;;21.00;45.70;;;;;;5033719;28;20195;-71
2022/04/13 12:43:56;;;;;;;9.27;6.00;;;20.80;45.50;;;;;;5032637;28;20254;-72
2022/04/13 12:46:26;;;;;;;7.00;5.90;;;20.80;46.10;;;;;;5033046;28;20332;-71
2022/04/13 12:48:57;;;;;;;10.85;5.82;;;20.80;45.70;;;;;;5033754;28;20159;-71
2022/04/13 12:51:23;;;;;;;6.22;5.63;;;20.80;47.60;;;;;;5032565;28;20281;-70
2022/04/13 12:53:57;;;;;;;5.95;5.32;;;21.00;45.90;;;;;;5032890;28;20179;-70